Time;durP1;ratioP1;P1;durP2;ratioP2;P2;SDS_P1;SDS_P2;PMS_P1;PMS_P2;Temp;Humidity;BMP_temperature;BMP_pressure;BME280_temperature;BME280_humidity;BME280_pressure;Samples;Min_cycle;Max_cycle;Signal;HPM_P1;HPM_P2
2022/09/03 00:01:03;;;;;;;0.20;0.20;;;;;;;;;;4148194;28;20513;-41
2022/09/03 00:03:16;;;;;;;0.20;0.10;;;;;;;;;;4146259;28;20053;-41
2022/09/03 00:05:17;;;;;;;0.17;0.10;;;;;;;;;;4147966;28;20401;-41
2022/09/03 00:07:47;;;;;;;0.10;0.10;;;;;;;;;;4148061;28;20061;-41
2022/09/03 00:09:56;;;;;;;0.10;0.10;;;;;;;;;;4148094;28;20088;-41
2022/09/03 00:12:29;;;;;;;0.20;0.20;;;;;;;;;;4133865;28;20097;-41
2022/09/03 00:14:38;;;;;;;0.10;0.10;;;;;;;;;;4128360;28;20105;-41
2022/09/03 00:16:49;;;;;;;0.20;0.20;;;;;;;;;;4128198;28;20108;-41
2022/09/03 00:18:56;;;;;;;0.10;0.10;;;;;;;;;;4136304;28;20120;-41
2022/09/03 00:21:07;;;;;;;0.10;0.03;;;;;;;;;;4128201;28;20445;-41
2022/09/03 00:23:15;;;;;;;0.20;0.10;;;;;;;;;;4127769;28;20054;-42
2022/09/03 00:25:20;;;;;;;0.05;0.05;;;;;;;;;;4128635;28;20054;-42
2022/09/03 00:27:24;;;;;;;0.00;0.00;;;;;;;;;;4144727;28;20108;-41
2022/09/03 00:29:34;;;;;;;0.15;0.10;;;;;;;;;;4144772;28;20104;-42
2022/09/03 00:31:41;;;;;;;0.05;0.00;;;;;;;;;;4129748;28;20061;-43
2022/09/03 00:33:45;;;;;;;0.10;0.10;;;;;;;;;;4129280;28;20186;-43
2022/09/03 00:35:52;;;;;;;0.55;0.10;;;;;;;;;;4127777;28;20058;-41
2022/09/03 00:37:54;;;;;;;0.10;0.10;;;;;;;;;;4129387;28;20058;-41
2022/09/03 00:39:55;;;;;;;0.30;0.20;;;;;;;;;;4129289;28;20050;-42
2022/09/03 00:42:16;;;;;;;0.20;0.20;;;;;;;;;;4129335;28;20066;-42
2022/09/03 00:44:28;;;;;;;0.10;0.10;;;;;;;;;;4144516;28;20104;-41
2022/09/03 00:46:50;;;;;;;0.00;0.00;;;;;;;;;;4129215;28;20418;-42
2022/09/03 00:49:08;;;;;;;0.13;0.10;;;;;;;;;;4128926;28;20108;-42
2022/09/03 00:51:34;;;;;;;0.08;0.08;;;;;;;;;;4145848;28;20057;-41
2022/09/03 00:53:50;;;;;;;0.10;0.10;;;;;;;;;;4145733;28;20065;-42
2022/09/03 00:56:05;;;;;;;0.10;0.10;;;;;;;;;;4145727;28;20057;-41
2022/09/03 00:58:24;;;;;;;0.20;0.10;;;;;;;;;;4144220;28;20057;-41
2022/09/03 01:00:25;;;;;;;0.10;0.10;;;;;;;;;;4145250;28;20120;-42
2022/09/03 01:02:41;;;;;;;0.20;0.10;;;;;;;;;;4144964;28;20089;-41
2022/09/03 01:05:18;;;;;;;0.00;0.00;;;;;;;;;;4143200;28;20733;-43
2022/09/03 01:07:40;;;;;;;0.10;0.10;;;;;;;;;;4145432;28;20096;-41
2022/09/03 01:09:58;;;;;;;0.00;0.00;;;;;;;;;;4130302;28;20065;-41
2022/09/03 01:12:30;;;;;;;0.20;0.10;;;;;;;;;;4131446;28;20081;-41
2022/09/03 01:15:06;;;;;;;0.20;0.20;;;;;;;;;;4129898;28;20101;-40
2022/09/03 01:17:47;;;;;;;0.10;0.10;;;;;;;;;;4130629;28;20124;-41
2022/09/03 01:20:17;;;;;;;0.10;0.10;;;;;;;;;;4130558;28;20073;-41
2022/09/03 01:22:30;;;;;;;0.00;0.00;;;;;;;;;;4130860;28;20418;-41
2022/09/03 01:24:45;;;;;;;0.10;0.10;;;;;;;;;;4130915;28;20086;-41
2022/09/03 01:27:37;;;;;;;0.32;0.20;;;;;;;;;;4129459;28;20491;-41
2022/09/03 01:29:53;;;;;;;0.55;0.10;;;;;;;;;;4130340;28;20119;-41
2022/09/03 01:32:38;;;;;;;0.10;0.10;;;;;;;;;;4131026;28;20062;-40
2022/09/03 01:34:48;;;;;;;0.10;0.10;;;;;;;;;;4158872;28;20058;-41
2022/09/03 01:36:57;;;;;;;0.15;0.10;;;;;;;;;;4129390;28;20506;-41
2022/09/03 01:39:01;;;;;;;0.10;0.10;;;;;;;;;;4130508;28;20050;-41
2022/09/03 01:44:06;;;;;;;0.30;0.10;;;;;;;;;;4138106;28;20088;-41
2022/09/03 01:46:13;;;;;;;0.10;0.10;;;;;;;;;;4146980;28;20115;-42
2022/09/03 01:48:58;;;;;;;0.10;0.10;;;;;;;;;;4149649;28;20417;-41
2022/09/03 01:51:19;;;;;;;0.30;0.10;;;;;;;;;;4149994;28;20112;-41
2022/09/03 01:53:58;;;;;;;0.10;0.10;;;;;;;;;;4149961;28;20556;-41
2022/09/03 01:56:08;;;;;;;0.20;0.10;;;;;;;;;;4150083;28;20065;-40
2022/09/03 01:58:15;;;;;;;0.10;0.10;;;;;;;;;;4149945;28;20065;-41
2022/09/03 02:00:19;;;;;;;0.10;0.10;;;;;;;;;;4149802;28;20509;-40
2022/09/03 02:02:23;;;;;;;0.10;0.10;;;;;;;;;;4149474;28;20060;-40
2022/09/03 02:04:27;;;;;;;0.10;0.10;;;;;;;;;;4148597;28;20481;-40
2022/09/03 02:06:30;;;;;;;0.15;0.15;;;;;;;;;;4148557;28;20057;-40
2022/09/03 02:08:31;;;;;;;0.00;0.00;;;;;;;;;;4149973;28;20054;-41
2022/09/03 02:10:39;;;;;;;0.28;0.28;;;;;;;;;;4149851;28;20490;-40
2022/09/03 02:12:44;;;;;;;0.10;0.10;;;;;;;;;;4149953;28;20054;-41
2022/09/03 02:14:46;;;;;;;0.10;0.10;;;;;;;;;;4149662;28;20054;-40
2022/09/03 02:16:47;;;;;;;0.10;0.10;;;;;;;;;;4149687;28;20053;-41
2022/09/03 02:18:57;;;;;;;0.38;0.10;;;;;;;;;;4147874;28;20058;-41
2022/09/03 02:20:59;;;;;;;0.00;0.00;;;;;;;;;;4133511;28;20125;-41
2022/09/03 02:23:01;;;;;;;0.10;0.10;;;;;;;;;;4133343;28;20081;-40
2022/09/03 02:25:02;;;;;;;0.20;0.20;;;;;;;;;;4133446;28;20061;-40
2022/09/03 02:27:03;;;;;;;0.30;0.10;;;;;;;;;;4131785;28;20200;-40
2022/09/03 02:29:05;;;;;;;0.10;0.10;;;;;;;;;;4133432;28;20042;-41
2022/09/03 02:31:06;;;;;;;0.10;0.10;;;;;;;;;;4133401;28;20058;-40
2022/09/03 02:33:08;;;;;;;0.10;0.10;;;;;;;;;;4132716;28;20421;-40
2022/09/03 02:35:09;;;;;;;0.10;0.10;;;;;;;;;;4133310;28;20621;-40
2022/09/03 02:37:15;;;;;;;0.08;0.08;;;;;;;;;;4133027;28;20453;-40
2022/09/03 02:39:16;;;;;;;0.10;0.10;;;;;;;;;;4132967;28;20050;-40
2022/09/03 02:41:18;;;;;;;0.10;0.00;;;;;;;;;;4131966;28;20418;-40
2022/09/03 02:43:38;;;;;;;0.10;0.10;;;;;;;;;;4133129;28;20081;-41
2022/09/03 02:45:44;;;;;;;0.25;0.10;;;;;;;;;;4133098;28;20506;-40
2022/09/03 02:47:46;;;;;;;0.15;0.10;;;;;;;;;;4134545;28;20046;-42
2022/09/03 02:49:48;;;;;;;0.10;0.10;;;;;;;;;;4147958;28;20563;-42
2022/09/03 02:51:49;;;;;;;0.10;0.10;;;;;;;;;;4149136;28;20790;-40
2022/09/03 02:53:50;;;;;;;0.20;0.10;;;;;;;;;;4149412;28;20101;-41
2022/09/03 02:55:52;;;;;;;0.10;0.10;;;;;;;;;;4148109;28;20076;-41
2022/09/03 02:57:53;;;;;;;0.08;0.08;;;;;;;;;;4149017;28;20100;-40
2022/09/03 02:59:54;;;;;;;0.10;0.10;;;;;;;;;;4149093;28;20466;-40
2022/09/03 03:01:55;;;;;;;0.08;0.08;;;;;;;;;;4148799;28;20115;-41
2022/09/03 03:03:57;;;;;;;0.10;0.10;;;;;;;;;;4148829;28;20127;-40
2022/09/03 03:06:00;;;;;;;0.10;0.10;;;;;;;;;;4149233;28;20057;-40
2022/09/03 03:08:03;;;;;;;0.20;0.13;;;;;;;;;;4146951;28;20060;-40
2022/09/03 03:10:04;;;;;;;0.10;0.10;;;;;;;;;;4148672;28;20452;-41
2022/09/03 03:12:06;;;;;;;0.20;0.13;;;;;;;;;;4140805;28;20129;-40
2022/09/03 03:14:07;;;;;;;0.10;0.10;;;;;;;;;;4130849;28;20062;-41
2022/09/03 03:16:08;;;;;;;0.20;0.10;;;;;;;;;;4130675;28;20171;-41
2022/09/03 03:18:13;;;;;;;0.00;0.00;;;;;;;;;;4130150;28;20108;-41
2022/09/03 03:20:14;;;;;;;0.10;0.10;;;;;;;;;;4130591;28;20130;-40
2022/09/03 03:22:15;;;;;;;0.20;0.10;;;;;;;;;;4128994;28;20054;-40
2022/09/03 03:24:16;;;;;;;0.13;0.10;;;;;;;;;;4129007;28;20058;-41
2022/09/03 03:26:19;;;;;;;0.20;0.10;;;;;;;;;;4145420;28;20256;-40
2022/09/03 03:28:20;;;;;;;0.10;0.10;;;;;;;;;;4130301;28;20136;-40
2022/09/03 03:30:22;;;;;;;0.08;0.08;;;;;;;;;;4130387;28;20485;-40
2022/09/03 03:32:23;;;;;;;0.10;0.10;;;;;;;;;;4129795;28;20485;-40
2022/09/03 03:34:24;;;;;;;0.30;0.10;;;;;;;;;;4129476;28;20062;-40
2022/09/03 03:36:29;;;;;;;0.10;0.10;;;;;;;;;;4144861;28;20062;-40
2022/09/03 03:38:30;;;;;;;0.10;0.10;;;;;;;;;;4139911;28;20116;-40
2022/09/03 03:40:31;;;;;;;0.10;0.10;;;;;;;;;;4145260;28;20061;-40
2022/09/03 03:42:33;;;;;;;0.10;0.10;;;;;;;;;;4146136;28;20068;-41
2022/09/03 03:44:34;;;;;;;0.10;0.10;;;;;;;;;;4146222;28;20049;-42
2022/09/03 03:46:40;;;;;;;1.10;0.10;;;;;;;;;;4146411;28;20073;-41
2022/09/03 03:48:41;;;;;;;0.10;0.10;;;;;;;;;;4145430;28;20053;-41
2022/09/03 03:50:42;;;;;;;0.00;0.00;;;;;;;;;;4146126;28;20100;-41
2022/09/03 03:52:44;;;;;;;0.17;0.15;;;;;;;;;;4146237;28;20061;-41
2022/09/03 03:54:45;;;;;;;0.08;0.08;;;;;;;;;;4145990;28;20108;-41
2022/09/03 03:56:46;;;;;;;0.10;0.10;;;;;;;;;;4146357;28;20494;-42
2022/09/03 03:58:47;;;;;;;0.15;0.15;;;;;;;;;;4146103;28;20148;-40
2022/09/03 04:00:50;;;;;;;1.00;0.20;;;;;;;;;;4144404;28;20054;-41
2022/09/03 04:02:51;;;;;;;0.00;0.00;;;;;;;;;;4147446;28;20077;-41
2022/09/03 04:04:53;;;;;;;0.10;0.10;;;;;;;;;;4146745;28;20537;-40
2022/09/03 04:06:54;;;;;;;0.10;0.10;;;;;;;;;;4147910;28;20395;-41
2022/09/03 04:08:55;;;;;;;0.10;0.10;;;;;;;;;;4146420;28;20066;-41
2022/09/03 04:11:01;;;;;;;0.10;0.10;;;;;;;;;;4148013;28;20117;-41
2022/09/03 04:13:02;;;;;;;0.00;0.00;;;;;;;;;;4147335;28;20112;-41
2022/09/03 04:15:05;;;;;;;0.25;0.10;;;;;;;;;;4148009;28;20061;-41
2022/09/03 04:17:06;;;;;;;0.10;0.10;;;;;;;;;;4147392;28;20103;-41
2022/09/03 04:19:08;;;;;;;0.22;0.10;;;;;;;;;;4140219;28;20129;-41
2022/09/03 04:21:12;;;;;;;0.30;0.10;;;;;;;;;;4145794;28;20089;-41
2022/09/03 04:23:13;;;;;;;0.10;0.10;;;;;;;;;;4144521;28;20061;-41
2022/09/03 04:25:15;;;;;;;0.08;0.00;;;;;;;;;;4145997;28;20107;-41
2022/09/03 04:27:16;;;;;;;0.03;0.00;;;;;;;;;;4145581;28;20120;-41
2022/09/03 04:29:17;;;;;;;0.13;0.10;;;;;;;;;;4145786;28;20054;-40
2022/09/03 04:31:19;;;;;;;0.10;0.10;;;;;;;;;;4145501;28;20457;-40
2022/09/03 04:33:23;;;;;;;0.08;0.05;;;;;;;;;;4145343;28;20061;-41
2022/09/03 04:35:30;;;;;;;0.10;0.10;;;;;;;;;;4145770;28;20064;-41
2022/09/03 04:37:32;;;;;;;0.10;0.10;;;;;;;;;;4145524;28;20100;-41
2022/09/03 04:39:33;;;;;;;0.20;0.10;;;;;;;;;;4145381;28;20111;-43
2022/09/03 04:41:34;;;;;;;0.10;0.10;;;;;;;;;;4145295;28;20555;-41
2022/09/03 04:43:36;;;;;;;0.10;0.10;;;;;;;;;;4144939;28;20053;-41
2022/09/03 04:45:37;;;;;;;0.03;0.03;;;;;;;;;;4145609;28;20056;-41
2022/09/03 04:47:38;;;;;;;0.32;0.10;;;;;;;;;;4144884;28;20501;-41
2022/09/03 04:49:39;;;;;;;0.00;0.00;;;;;;;;;;4145950;28;20160;-41
2022/09/03 04:51:40;;;;;;;0.25;0.20;;;;;;;;;;4127757;28;20096;-40
2022/09/03 04:53:47;;;;;;;0.30;0.10;;;;;;;;;;4145101;28;20124;-41
2022/09/03 04:55:48;;;;;;;0.10;0.10;;;;;;;;;;4145289;28;20188;-41
2022/09/03 04:57:50;;;;;;;0.10;0.10;;;;;;;;;;4144269;28;20399;-41
2022/09/03 04:59:51;;;;;;;0.10;0.10;;;;;;;;;;4145184;28;20100;-41
2022/09/03 05:01:52;;;;;;;0.10;0.10;;;;;;;;;;4143635;28;20128;-41
2022/09/03 05:03:58;;;;;;;0.10;0.10;;;;;;;;;;4144674;28;20069;-41
2022/09/03 05:05:59;;;;;;;0.13;0.10;;;;;;;;;;4143880;28;20045;-41
2022/09/03 05:08:00;;;;;;;0.10;0.10;;;;;;;;;;4130790;28;20506;-41
2022/09/03 05:10:02;;;;;;;0.10;0.10;;;;;;;;;;4130794;28;20054;-42
2022/09/03 05:12:03;;;;;;;0.13;0.13;;;;;;;;;;4130633;28;20062;-41
2022/09/03 05:14:04;;;;;;;0.10;0.10;;;;;;;;;;4130756;28;20106;-41
2022/09/03 05:16:07;;;;;;;0.30;0.05;;;;;;;;;;4130725;28;20182;-41
2022/09/03 05:18:09;;;;;;;0.10;0.10;;;;;;;;;;4139490;28;20383;-41
2022/09/03 05:20:10;;;;;;;0.10;0.10;;;;;;;;;;4130905;28;20057;-41
2022/09/03 05:22:11;;;;;;;0.20;0.10;;;;;;;;;;4128214;28;20600;-41
2022/09/03 05:24:13;;;;;;;0.00;0.00;;;;;;;;;;4129468;28;20065;-41
2022/09/03 05:26:20;;;;;;;0.00;0.00;;;;;;;;;;4130692;28;20133;-41
2022/09/03 05:28:21;;;;;;;0.10;0.10;;;;;;;;;;4129241;28;20061;-41
2022/09/03 05:30:23;;;;;;;0.05;0.05;;;;;;;;;;4130896;28;20054;-41
2022/09/03 05:32:26;;;;;;;0.10;0.10;;;;;;;;;;4130386;28;20058;-41
2022/09/03 05:34:28;;;;;;;0.10;0.10;;;;;;;;;;4130446;28;20081;-41
2022/09/03 05:36:31;;;;;;;0.10;0.10;;;;;;;;;;4130368;28;20445;-42
2022/09/03 05:38:32;;;;;;;0.00;0.00;;;;;;;;;;4130502;28;20124;-41
2022/09/03 05:40:35;;;;;;;0.10;0.10;;;;;;;;;;4129059;28;20105;-42
2022/09/03 05:42:37;;;;;;;0.20;0.13;;;;;;;;;;4130576;28;20106;-42
2022/09/03 05:44:39;;;;;;;0.10;0.10;;;;;;;;;;4142210;28;20053;-41
2022/09/03 05:46:40;;;;;;;0.00;0.00;;;;;;;;;;4147015;28;20062;-42
2022/09/03 05:48:42;;;;;;;0.10;0.10;;;;;;;;;;4146367;28;20555;-40
2022/09/03 05:50:43;;;;;;;0.10;0.10;;;;;;;;;;4146593;28;20104;-42
2022/09/03 05:52:44;;;;;;;0.10;0.10;;;;;;;;;;4146564;28;20077;-40
2022/09/03 05:54:46;;;;;;;0.17;0.10;;;;;;;;;;4146923;28;20053;-41
2022/09/03 05:56:48;;;;;;;0.20;0.20;;;;;;;;;;4146628;28;20116;-39
2022/09/03 05:58:52;;;;;;;0.20;0.10;;;;;;;;;;4146595;28;20267;-40
2022/09/03 06:00:53;;;;;;;0.03;0.00;;;;;;;;;;4146564;28;20096;-40
2022/09/03 06:02:54;;;;;;;0.00;0.00;;;;;;;;;;4145856;28;20065;-40
2022/09/03 06:04:56;;;;;;;0.10;0.10;;;;;;;;;;4146361;28;20421;-40
2022/09/03 06:06:57;;;;;;;0.08;0.08;;;;;;;;;;4146830;28;20058;-40
2022/09/03 06:09:01;;;;;;;0.00;0.00;;;;;;;;;;4146319;28;20438;-41
2022/09/03 06:11:03;;;;;;;0.10;0.10;;;;;;;;;;4146418;28;20568;-42
2022/09/03 06:13:04;;;;;;;0.10;0.10;;;;;;;;;;4146548;28;20054;-41
2022/09/03 06:15:06;;;;;;;0.17;0.10;;;;;;;;;;4146461;28;20058;-40
2022/09/03 06:17:10;;;;;;;0.00;0.00;;;;;;;;;;4146322;28;20127;-40
2022/09/03 06:19:13;;;;;;;0.03;0.03;;;;;;;;;;4146412;28;20081;-40
2022/09/03 06:21:14;;;;;;;0.10;0.10;;;;;;;;;;4146549;28;20053;-40
2022/09/03 06:23:15;;;;;;;0.35;0.03;;;;;;;;;;4128774;28;20205;-41
2022/09/03 06:25:16;;;;;;;0.10;0.10;;;;;;;;;;4146536;28;20061;-41
2022/09/03 06:27:20;;;;;;;0.10;0.10;;;;;;;;;;4146259;28;20057;-41
2022/09/03 06:29:21;;;;;;;0.10;0.10;;;;;;;;;;4146288;28;20104;-42
2022/09/03 06:31:23;;;;;;;0.10;0.00;;;;;;;;;;4146486;28;20054;-41
2022/09/03 06:33:24;;;;;;;0.00;0.00;;;;;;;;;;4146665;28;20414;-41
2022/09/03 06:35:25;;;;;;;0.10;0.10;;;;;;;;;;4149348;28;20112;-41
2022/09/03 06:37:26;;;;;;;0.10;0.10;;;;;;;;;;4149263;28;20057;-41
2022/09/03 06:39:27;;;;;;;0.00;0.00;;;;;;;;;;4149241;28;20054;-41
2022/09/03 06:41:32;;;;;;;0.10;0.10;;;;;;;;;;4149266;28;20054;-41
2022/09/03 06:43:35;;;;;;;0.10;0.10;;;;;;;;;;4149204;28;20460;-41
2022/09/03 06:45:37;;;;;;;0.10;0.10;;;;;;;;;;4148672;28;20054;-41
2022/09/03 06:47:38;;;;;;;0.10;0.10;;;;;;;;;;4147370;28;20383;-41
2022/09/03 06:49:39;;;;;;;0.20;0.10;;;;;;;;;;4148391;28;20242;-40
2022/09/03 06:51:42;;;;;;;0.00;0.00;;;;;;;;;;4149070;28;20117;-40
2022/09/03 06:53:46;;;;;;;0.10;0.10;;;;;;;;;;4149264;28;20057;-41
2022/09/03 06:55:58;;;;;;;0.10;0.10;;;;;;;;;;4149105;28;20092;-40
2022/09/03 06:57:59;;;;;;;0.10;0.10;;;;;;;;;;4149120;28;20060;-40
2022/09/03 07:00:02;;;;;;;0.10;0.10;;;;;;;;;;4147619;28;20136;-40
2022/09/03 07:02:05;;;;;;;0.10;0.10;;;;;;;;;;4148569;28;20081;-40
2022/09/03 07:04:07;;;;;;;0.10;0.10;;;;;;;;;;4147314;28;20050;-40
2022/09/03 07:06:17;;;;;;;0.10;0.10;;;;;;;;;;4148943;28;20054;-40
2022/09/03 07:08:18;;;;;;;;;;;;;;;;;;4149246;28;20053;-40
2022/09/03 07:10:20;;;;;;;0.10;0.00;;;;;;;;;;4149020;28;20017;-40
2022/09/03 07:12:21;;;;;;;0.10;0.10;;;;;;;;;;4148665;28;20485;-41
2022/09/03 07:14:23;;;;;;;0.10;0.10;;;;;;;;;;4148694;28;20058;-40
2022/09/03 07:16:35;;;;;;;0.50;0.10;;;;;;;;;;4148748;28;20058;-41
2022/09/03 07:18:37;;;;;;;0.17;0.08;;;;;;;;;;4146891;28;20053;-40
2022/09/03 07:20:38;;;;;;;0.00;0.00;;;;;;;;;;4148497;28;20383;-40
2022/09/03 07:22:39;;;;;;;0.00;0.00;;;;;;;;;;4148738;28;20085;-40
2022/09/03 07:24:41;;;;;;;0.10;0.10;;;;;;;;;;4148640;28;20058;-40
2022/09/03 07:26:45;;;;;;;0.08;0.00;;;;;;;;;;4147335;28;20050;-41
2022/09/03 07:28:47;;;;;;;0.10;0.10;;;;;;;;;;4147114;28;20054;-42
2022/09/03 07:30:50;;;;;;;0.10;0.10;;;;;;;;;;4148398;28;20441;-42
2022/09/03 07:32:52;;;;;;;0.08;0.08;;;;;;;;;;4147814;28;20076;-42
2022/09/03 07:34:53;;;;;;;0.00;0.00;;;;;;;;;;4147244;28;20057;-42
2022/09/03 07:36:54;;;;;;;0.13;0.10;;;;;;;;;;4148678;28;20065;-43
2022/09/03 07:38:57;;;;;;;0.10;0.10;;;;;;;;;;4148211;28;20065;-42
2022/09/03 07:41:00;;;;;;;0.10;0.10;;;;;;;;;;4148289;28;20355;-42
2022/09/03 07:43:03;;;;;;;0.13;0.10;;;;;;;;;;4148275;28;20058;-42
2022/09/03 07:45:09;;;;;;;0.08;0.08;;;;;;;;;;4147259;28;20116;-44
2022/09/03 07:47:10;;;;;;;0.08;0.08;;;;;;;;;;4147516;28;20053;-43
2022/09/03 07:49:11;;;;;;;0.10;0.10;;;;;;;;;;4147289;28;20054;-43
2022/09/03 07:51:12;;;;;;;0.05;0.05;;;;;;;;;;4148159;28;20552;-42
2022/09/03 07:53:19;;;;;;;0.10;0.10;;;;;;;;;;4147985;28;20065;-41
2022/09/03 07:55:20;;;;;;;0.10;0.10;;;;;;;;;;4148272;28;20112;-42
2022/09/03 07:57:21;;;;;;;0.10;0.10;;;;;;;;;;4146785;28;20061;-42
2022/09/03 07:59:23;;;;;;;0.00;0.00;;;;;;;;;;4148092;28;20136;-43
2022/09/03 08:01:27;;;;;;;0.10;0.10;;;;;;;;;;4146629;28;20104;-42
2022/09/03 08:03:28;;;;;;;0.00;0.00;;;;;;;;;;4147852;28;20064;-42
2022/09/03 08:05:31;;;;;;;0.00;0.00;;;;;;;;;;4148262;28;20054;-43
2022/09/03 08:07:33;;;;;;;0.20;0.10;;;;;;;;;;4148099;28;20107;-42
2022/09/03 08:09:34;;;;;;;0.10;0.10;;;;;;;;;;4147882;28;20474;-42
2022/09/03 08:11:37;;;;;;;0.13;0.10;;;;;;;;;;4147929;28;20112;-42
2022/09/03 08:13:47;;;;;;;0.10;0.10;;;;;;;;;;4146483;28;20061;-43
2022/09/03 08:15:55;;;;;;;0.10;0.08;;;;;;;;;;4147957;28;20108;-42
2022/09/03 08:17:58;;;;;;;0.10;0.10;;;;;;;;;;4142788;28;20049;-42
2022/09/03 08:19:59;;;;;;;0.45;0.10;;;;;;;;;;4129879;28;20104;-40
2022/09/03 08:22:01;;;;;;;0.10;0.10;;;;;;;;;;4145400;28;20061;-43
2022/09/03 08:24:02;;;;;;;0.10;0.10;;;;;;;;;;4148813;28;20572;-41
2022/09/03 08:26:04;;;;;;;0.10;0.10;;;;;;;;;;4129168;28;20070;-42
2022/09/03 08:28:05;;;;;;;0.30;0.10;;;;;;;;;;4127990;28;20054;-43
2022/09/03 08:30:10;;;;;;;0.00;0.00;;;;;;;;;;4130137;28;20513;-42
2022/09/03 08:32:11;;;;;;;0.00;0.00;;;;;;;;;;4128771;28;20149;-41
2022/09/03 08:34:13;;;;;;;0.00;0.00;;;;;;;;;;4129889;28;20086;-43
2022/09/03 08:36:17;;;;;;;0.20;0.10;;;;;;;;;;4129622;28;20058;-41
2022/09/03 08:38:18;;;;;;;0.00;0.00;;;;;;;;;;4140432;28;20112;-41
2022/09/03 08:40:21;;;;;;;0.10;0.10;;;;;;;;;;4146508;28;20416;-42
2022/09/03 08:42:38;;;;;;;0.10;0.10;;;;;;;;;;4147462;28;20573;-41
2022/09/03 08:44:48;;;;;;;0.52;0.05;;;;;;;;;;4147495;28;20053;-40
2022/09/03 08:46:50;;;;;;;;;;;;;;;;;;4147911;28;20116;-40
2022/09/03 08:48:52;;;;;;;0.35;0.20;;;;;;;;;;4145627;28;19922;-40
2022/09/03 08:50:58;;;;;;;0.10;0.10;;;;;;;;;;4147236;28;20049;-40
2022/09/03 08:53:08;;;;;;;0.08;0.08;;;;;;;;;;4147403;28;20058;-41
2022/09/03 08:55:26;;;;;;;0.10;0.10;;;;;;;;;;4147287;28;20100;-40
2022/09/03 08:57:32;;;;;;;0.00;0.00;;;;;;;;;;4147379;28;20049;-40
2022/09/03 08:59:33;;;;;;;0.10;0.10;;;;;;;;;;4147116;28;20382;-41
2022/09/03 09:01:57;;;;;;;0.10;0.10;;;;;;;;;;4145912;28;20116;-42
2022/09/03 09:04:13;;;;;;;0.00;0.00;;;;;;;;;;4145604;28;20390;-40
2022/09/03 09:06:41;;;;;;;0.10;0.10;;;;;;;;;;4129716;28;20054;-42
2022/09/03 09:09:17;;;;;;;0.00;0.00;;;;;;;;;;4147025;28;20552;-41
2022/09/03 09:11:39;;;;;;;0.25;0.10;;;;;;;;;;4147145;28;20105;-39
2022/09/03 09:14:02;;;;;;;0.10;0.10;;;;;;;;;;4147019;28;20057;-40
2022/09/03 09:16:19;;;;;;;0.10;0.10;;;;;;;;;;4145509;28;20058;-42
2022/09/03 09:18:51;;;;;;;0.03;0.00;;;;;;;;;;4146522;28;20474;-40
2022/09/03 09:21:07;;;;;;;0.00;0.00;;;;;;;;;;4145848;28;20050;-42
2022/09/03 09:23:19;;;;;;;0.10;0.10;;;;;;;;;;4129415;28;20469;-41
2022/09/03 09:25:22;;;;;;;0.10;0.10;;;;;;;;;;4145588;28;20510;-41
2022/09/03 09:27:23;;;;;;;0.08;0.08;;;;;;;;;;4146626;28;20414;-41
2022/09/03 09:29:27;;;;;;;0.10;0.10;;;;;;;;;;4146809;28;20430;-41
2022/09/03 09:31:29;;;;;;;0.00;0.00;;;;;;;;;;4145794;28;20057;-41
2022/09/03 09:33:31;;;;;;;0.00;0.00;;;;;;;;;;4146405;28;20062;-41
2022/09/03 09:35:32;;;;;;;0.00;0.00;;;;;;;;;;4146882;28;20050;-41
2022/09/03 09:37:34;;;;;;;0.10;0.00;;;;;;;;;;4146606;28;20057;-41
2022/09/03 09:39:36;;;;;;;0.20;0.10;;;;;;;;;;4145483;28;20133;-42
2022/09/03 09:41:37;;;;;;;0.08;0.08;;;;;;;;;;4145475;28;20056;-41
2022/09/03 09:43:39;;;;;;;0.10;0.10;;;;;;;;;;4146545;28;20482;-41
2022/09/03 09:45:42;;;;;;;0.35;0.13;;;;;;;;;;4146744;28;20556;-41
2022/09/03 09:47:45;;;;;;;0.10;0.00;;;;;;;;;;4146342;28;20085;-41
2022/09/03 09:49:51;;;;;;;0.00;0.00;;;;;;;;;;4146619;28;20512;-41
2022/09/03 09:52:05;;;;;;;0.00;0.00;;;;;;;;;;4146711;28;20100;-41
2022/09/03 09:54:18;;;;;;;0.08;0.08;;;;;;;;;;4147085;28;20056;-41
2022/09/03 09:56:21;;;;;;;0.10;0.10;;;;;;;;;;4145401;28;20092;-41
2022/09/03 09:58:25;;;;;;;0.10;0.10;;;;;;;;;;4146677;28;20062;-41
2022/09/03 10:00:26;;;;;;;0.10;0.10;;;;;;;;;;4146731;28;20481;-41
2022/09/03 10:02:28;;;;;;;0.10;0.10;;;;;;;;;;4146013;28;20505;-40
2022/09/03 10:04:30;;;;;;;0.10;0.10;;;;;;;;;;4146701;28;20100;-41
2022/09/03 10:08:53;;;;;;;0.10;0.10;;;;;;;;;;4149674;28;20057;-40
2022/09/03 10:10:54;;;;;;;0.00;0.00;;;;;;;;;;4148409;28;20049;-40
2022/09/03 10:13:00;;;;;;;0.10;0.10;;;;;;;;;;4149598;28;20064;-40
2022/09/03 10:15:22;;;;;;;0.15;0.10;;;;;;;;;;4148592;28;20061;-40
2022/09/03 10:17:45;;;;;;;0.13;0.10;;;;;;;;;;4149078;28;20057;-40
2022/09/03 10:22:25;;;;;;;0.10;0.10;;;;;;;;;;4149849;28;20053;-41
2022/09/03 10:24:38;;;;;;;0.00;0.00;;;;;;;;;;4149473;28;20058;-40
2022/09/03 10:26:40;;;;;;;0.00;0.00;;;;;;;;;;4149378;28;20112;-40
2022/09/03 10:28:41;;;;;;;0.10;0.10;;;;;;;;;;4149359;28;20479;-41
2022/09/03 10:31:07;;;;;;;0.20;0.15;;;;;;;;;;4149267;28;20053;-41
2022/09/03 10:33:33;;;;;;;0.08;0.08;;;;;;;;;;4148980;28;20053;-40
2022/09/03 10:35:40;;;;;;;0.17;0.10;;;;;;;;;;4148189;28;20054;-40
2022/09/03 10:38:19;;;;;;;0.10;0.10;;;;;;;;;;4148059;28;20556;-40
2022/09/03 10:40:40;;;;;;;0.10;0.10;;;;;;;;;;4147769;28;20053;-40
2022/09/03 10:42:48;;;;;;;0.10;0.10;;;;;;;;;;4146863;28;20116;-40
2022/09/03 10:44:59;;;;;;;0.10;0.10;;;;;;;;;;4148441;28;20058;-41
2022/09/03 10:47:10;;;;;;;0.10;0.10;;;;;;;;;;4148046;28;20629;-40
2022/09/03 10:49:35;;;;;;;0.10;0.10;;;;;;;;;;4148848;28;20057;-40
2022/09/03 10:52:01;;;;;;;0.10;0.00;;;;;;;;;;4149169;28;20104;-40
2022/09/03 10:54:31;;;;;;;0.10;0.10;;;;;;;;;;4149079;28;20109;-39
2022/09/03 10:56:53;;;;;;;0.00;0.00;;;;;;;;;;4147844;28;20246;-40
2022/09/03 10:59:32;;;;;;;0.10;0.00;;;;;;;;;;4147861;28;20116;-42
2022/09/03 11:01:58;;;;;;;0.00;0.00;;;;;;;;;;4148846;28;20046;-41
2022/09/03 11:04:32;;;;;;;0.30;0.10;;;;;;;;;;4148402;28;20548;-42
2022/09/03 11:06:41;;;;;;;0.08;0.00;;;;;;;;;;4147419;28;20501;-41
2022/09/03 11:08:54;;;;;;;0.17;0.03;;;;;;;;;;4147614;28;20065;-41
2022/09/03 11:11:10;;;;;;;0.10;0.10;;;;;;;;;;4132598;28;20046;-41
2022/09/03 11:13:20;;;;;;;0.03;0.03;;;;;;;;;;4132527;28;20066;-40
2022/09/03 11:15:32;;;;;;;0.20;0.10;;;;;;;;;;4132657;28;20065;-42
2022/09/03 11:17:40;;;;;;;0.00;0.00;;;;;;;;;;4130917;28;20054;-42
2022/09/03 11:19:47;;;;;;;0.08;0.05;;;;;;;;;;4129800;28;20410;-42
2022/09/03 11:21:48;;;;;;;0.03;0.00;;;;;;;;;;4132788;28;20065;-42
2022/09/03 11:23:59;;;;;;;0.10;0.10;;;;;;;;;;4131040;28;20061;-40
2022/09/03 11:26:04;;;;;;;0.10;0.10;;;;;;;;;;4132573;28;20353;-41
2022/09/03 11:28:24;;;;;;;0.00;0.00;;;;;;;;;;4147265;28;20054;-41
2022/09/03 11:30:36;;;;;;;0.20;0.20;;;;;;;;;;4131209;28;20105;-41
2022/09/03 11:32:55;;;;;;;0.10;0.10;;;;;;;;;;4130521;28;20109;-41
2022/09/03 11:34:57;;;;;;;0.10;0.10;;;;;;;;;;4147378;28;20060;-40
2022/09/03 11:37:06;;;;;;;0.88;0.08;;;;;;;;;;4132338;28;20054;-41
2022/09/03 11:39:25;;;;;;;0.03;0.00;;;;;;;;;;4147011;28;20053;-40
2022/09/03 11:41:34;;;;;;;0.10;0.10;;;;;;;;;;4132187;28;20125;-40
2022/09/03 11:43:36;;;;;;;0.17;0.17;;;;;;;;;;4136474;28;20054;-41
2022/09/03 11:45:38;;;;;;;0.10;0.10;;;;;;;;;;4147234;28;20049;-41
2022/09/03 11:47:41;;;;;;;0.10;0.10;;;;;;;;;;4147693;28;20049;-41
2022/09/03 11:49:49;;;;;;;0.13;0.10;;;;;;;;;;4148307;28;20452;-42
2022/09/03 11:51:58;;;;;;;0.17;0.10;;;;;;;;;;4148227;28;20080;-40
2022/09/03 11:54:04;;;;;;;0.28;0.10;;;;;;;;;;4148189;28;20504;-42
2022/09/03 11:56:05;;;;;;;0.10;0.10;;;;;;;;;;4148248;28;20397;-41
2022/09/03 11:58:12;;;;;;;0.10;0.10;;;;;;;;;;4147965;28;20057;-41
2022/09/03 12:00:21;;;;;;;0.10;0.10;;;;;;;;;;4146823;28;20172;-41
2022/09/03 12:02:32;;;;;;;0.17;0.17;;;;;;;;;;4147515;28;20058;-41
2022/09/03 12:04:47;;;;;;;0.10;0.00;;;;;;;;;;4148003;28;20088;-41
2022/09/03 12:07:50;;;;;;;0.10;0.10;;;;;;;;;;4148343;28;20552;-42
2022/09/03 12:10:19;;;;;;;0.20;0.00;;;;;;;;;;4145860;28;20050;-41
2022/09/03 12:12:31;;;;;;;0.20;0.10;;;;;;;;;;4142523;28;20058;-42
2022/09/03 12:14:58;;;;;;;0.10;0.10;;;;;;;;;;4146953;28;20144;-41
2022/09/03 12:17:19;;;;;;;0.10;0.10;;;;;;;;;;4147935;28;20505;-42
2022/09/03 12:19:28;;;;;;;0.00;0.00;;;;;;;;;;4146453;28;20076;-40
2022/09/03 12:21:29;;;;;;;0.10;0.07;;;;;;;;;;4146673;28;20563;-40
2022/09/03 12:23:34;;;;;;;0.20;0.00;;;;;;;;;;4147657;28;20054;-40
2022/09/03 12:25:46;;;;;;;0.10;0.00;;;;;;;;;;4147736;28;20108;-42
2022/09/03 12:27:48;;;;;;;0.10;0.10;;;;;;;;;;4147475;28;20050;-42
2022/09/03 12:29:56;;;;;;;0.03;0.03;;;;;;;;;;4147762;28;20096;-41
2022/09/03 12:32:08;;;;;;;0.17;0.00;;;;;;;;;;4147576;28;20054;-42
2022/09/03 12:34:11;;;;;;;0.00;0.00;;;;;;;;;;4146653;28;20112;-41
2022/09/03 12:36:13;;;;;;;0.00;0.00;;;;;;;;;;4130067;28;20142;-42
2022/09/03 12:38:22;;;;;;;0.13;0.10;;;;;;;;;;4146096;28;20054;-41
2022/09/03 12:40:25;;;;;;;0.10;0.10;;;;;;;;;;4147317;28;20059;-41
2022/09/03 12:42:29;;;;;;;0.10;0.10;;;;;;;;;;4147314;28;20433;-41
2022/09/03 12:44:31;;;;;;;0.10;0.00;;;;;;;;;;4146336;28;20050;-41
2022/09/03 12:46:32;;;;;;;0.10;0.00;;;;;;;;;;4147499;28;20509;-40
2022/09/03 12:48:34;;;;;;;0.10;0.10;;;;;;;;;;4145517;28;20062;-41
2022/09/03 12:50:35;;;;;;;0.43;0.20;;;;;;;;;;4147165;28;20497;-41